O'neill, Nebraska
Current Conditions -  °F | °C
As of 4:15 AM on Monday 26 Jan 2015 (Local Time) from KONL Reporting Station
Clear Clear  
Wind Chill: 31°   Ceiling: Unl
Heat Index: 38°   Visibility: 10mi
Dew Point: 33°   Wind: 10mph
Humidity: 82%   Direction: 270°W
Pressure: 29.88"   Gusts: NA
Location:  42.47°N, 98.68°W
Report Text: KONL 261015Z AUTO 27009KT 10SM CLR 04/01 A2988 RMK AO2 T00350007
Loading
Personal Weather Stations






























Interactive Weather Map New forecast layout! Learn more

10-Day Weather Forecast

Advertisements
Track Severe Weather on mobile